createdAt,value
2023-04-07T00:04:18.281Z,64.73
2023-04-07T00:09:42.557Z,64.93
2023-04-07T00:15:07.400Z,65.21
2023-04-07T00:20:31.672Z,65.26
2023-04-07T00:25:56.386Z,65.85
2023-04-07T00:31:21.475Z,66.37
2023-04-07T00:36:52.267Z,66.31
2023-04-07T00:42:16.177Z,66.66
2023-04-07T00:47:40.475Z,66.85
2023-04-07T00:53:06.147Z,67.48
2023-04-07T00:58:30.317Z,67.57
2023-04-07T01:03:59.700Z,67.33
2023-04-07T01:09:35.391Z,67.72
2023-04-07T01:15:08.757Z,67.70
2023-04-07T01:20:38.000Z,67.70
2023-04-07T01:26:19.025Z,67.84
2023-04-07T01:31:45.267Z,67.88
2023-04-07T01:37:11.176Z,68.09
2023-04-07T01:42:37.972Z,68.10
2023-04-07T01:48:02.114Z,68.05
2023-04-07T01:53:26.648Z,68.57
2023-04-07T01:58:51.419Z,69.31
2023-04-07T02:04:40.831Z,69.14
2023-04-07T02:10:09.198Z,69.08
2023-04-07T02:15:34.807Z,69.10
2023-04-07T02:21:01.542Z,69.06
2023-04-07T02:26:26.105Z,69.25
2023-04-07T02:31:49.993Z,68.89
2023-04-07T02:37:14.481Z,68.93
2023-04-07T02:42:39.128Z,68.86
2023-04-07T02:48:03.435Z,68.86
2023-04-07T02:53:27.497Z,69.12
2023-04-07T02:58:51.857Z,69.05
2023-04-07T03:04:16.352Z,69.52
2023-04-07T03:09:41.774Z,69.98
2023-04-07T03:15:07.696Z,70.84
2023-04-07T03:20:33.991Z,71.52
2023-04-07T03:26:03.623Z,71.70
2023-04-07T03:31:31.241Z,72.21
2023-04-07T03:36:55.784Z,72.52
2023-04-07T03:42:21.254Z,72.47
2023-04-07T03:47:47.180Z,73.19
2023-04-07T03:53:14.855Z,72.66
2023-04-07T03:58:41.875Z,72.46
2023-04-07T04:04:09.196Z,72.30
2023-04-07T04:09:33.656Z,72.11
2023-04-07T04:14:57.461Z,72.10
2023-04-07T04:20:22.735Z,71.84
2023-04-07T04:25:48.715Z,71.83
2023-04-07T04:31:12.894Z,71.56
2023-04-07T04:36:41.944Z,71.77
2023-04-07T04:42:06.897Z,71.50
2023-04-07T04:47:33.177Z,71.75
2023-04-07T04:52:59.698Z,71.42
2023-04-07T04:58:24.683Z,71.71
2023-04-07T05:03:52.261Z,71.54
2023-04-07T05:09:22.132Z,71.71
2023-04-07T05:14:46.924Z,71.48
2023-04-07T05:20:12.239Z,71.81
2023-04-07T05:25:38.473Z,71.64
2023-04-07T05:31:05.046Z,72.02
2023-04-07T05:36:32.056Z,73.00
2023-04-07T05:41:57.600Z,73.32
2023-04-07T05:47:24.047Z,72.99
2023-04-07T05:52:48.614Z,72.97
2023-04-07T05:58:24.616Z,72.55
2023-04-07T06:03:51.377Z,72.22
2023-04-07T06:09:22.342Z,72.04
2023-04-07T06:14:52.938Z,71.37
2023-04-07T06:20:17.197Z,71.33
2023-04-07T06:25:41.799Z,71.53
2023-04-07T06:31:06.901Z,71.09
2023-04-07T06:36:31.872Z,71.34
2023-04-07T06:41:57.291Z,71.42
2023-04-07T06:47:21.731Z,71.17
2023-04-07T06:52:46.217Z,71.10
2023-04-07T06:58:10.443Z,71.07
2023-04-07T07:03:35.406Z,71.26
2023-04-07T07:09:00.849Z,71.08
2023-04-07T07:14:25.459Z,71.12
2023-04-07T07:19:49.532Z,70.69
2023-04-07T07:25:14.143Z,70.65
2023-04-07T07:30:41.017Z,70.37
2023-04-07T07:36:06.425Z,70.40
2023-04-07T07:41:31.229Z,70.17
2023-04-07T07:46:55.692Z,70.00
2023-04-07T07:52:21.046Z,70.00
2023-04-07T07:57:45.328Z,69.92
2023-04-07T08:03:09.941Z,69.65
2023-04-07T08:08:35.121Z,68.87
2023-04-07T08:13:59.790Z,68.64
2023-04-07T08:19:24.291Z,68.30
2023-04-07T08:24:48.877Z,67.41
2023-04-07T08:30:13.676Z,67.66
2023-04-07T08:35:38.038Z,67.42
2023-04-07T08:41:12.098Z,66.97
2023-04-07T08:46:39.012Z,67.07
2023-04-07T08:52:09.107Z,66.67
2023-04-07T08:57:34.621Z,67.06
2023-04-07T09:03:01.018Z,66.81
2023-04-07T09:08:25.749Z,65.97
2023-04-07T09:13:51.937Z,64.69
2023-04-07T09:19:16.373Z,65.01
2023-04-07T09:24:42.706Z,65.39
2023-04-07T09:30:16.027Z,66.14
2023-04-07T09:35:53.689Z,66.50
2023-04-07T09:41:18.025Z,67.03
2023-04-07T09:46:59.777Z,67.26
2023-04-07T09:52:46.857Z,67.68
2023-04-07T09:58:17.192Z,67.63
2023-04-07T10:03:42.020Z,66.66
2023-04-07T10:09:06.818Z,66.54
2023-04-07T10:14:32.778Z,66.28
2023-04-07T10:19:59.671Z,66.08
2023-04-07T10:25:26.508Z,66.36
2023-04-07T10:30:51.595Z,66.05
2023-04-07T10:36:18.313Z,66.25
2023-04-07T10:41:42.881Z,66.65
2023-04-07T10:47:07.277Z,66.41
2023-04-07T10:52:38.260Z,66.62
2023-04-07T10:58:29.351Z,66.67
2023-04-07T11:03:55.509Z,67.60
2023-04-07T11:09:21.538Z,68.04
2023-04-07T11:14:45.860Z,68.05
2023-04-07T11:20:10.994Z,68.35
2023-04-07T11:25:36.282Z,67.99
2023-04-07T11:31:00.802Z,68.23
2023-04-07T11:36:42.677Z,68.43
2023-04-07T11:42:06.831Z,68.67
2023-04-07T11:47:38.449Z,69.37
2023-04-07T11:53:03.032Z,69.64
2023-04-07T11:58:28.811Z,69.37
2023-04-07T12:04:04.170Z,68.98
2023-04-07T12:09:36.648Z,69.15
2023-04-07T12:15:00.852Z,68.91
2023-04-07T12:20:26.439Z,69.34
2023-04-07T12:25:51.135Z,69.14
2023-04-07T12:31:16.828Z,69.12
2023-04-07T12:36:42.524Z,69.13
2023-04-07T12:42:12.208Z,68.99
2023-04-07T12:47:37.411Z,69.50
2023-04-07T12:53:03.925Z,69.56
2023-04-07T12:58:28.786Z,69.61
2023-04-07T13:03:54.185Z,69.98
2023-04-07T13:09:18.929Z,69.93
2023-04-07T13:14:57.160Z,69.39
2023-04-07T13:20:26.948Z,68.90
2023-04-07T13:25:51.445Z,68.80
2023-04-07T13:31:16.528Z,68.84
2023-04-07T13:36:42.745Z,69.32
2023-04-07T13:42:11.479Z,68.88
2023-04-07T13:47:37.251Z,68.77
2023-04-07T13:53:01.354Z,69.14
2023-04-07T13:58:26.217Z,69.19
2023-04-07T14:03:50.688Z,69.59
2023-04-07T14:09:15.807Z,69.94
2023-04-07T14:14:40.739Z,69.88
2023-04-07T14:20:05.395Z,70.38
2023-04-07T14:25:29.853Z,70.26
2023-04-07T14:30:55.000Z,70.69
2023-04-07T14:36:19.615Z,71.03
2023-04-07T14:41:48.212Z,70.83
2023-04-07T14:47:13.525Z,70.86
2023-04-07T14:52:38.349Z,71.22
2023-04-07T14:58:02.329Z,71.13
2023-04-07T15:03:27.381Z,71.59
2023-04-07T15:08:52.301Z,71.38
2023-04-07T15:14:16.847Z,72.13
2023-04-07T15:19:41.196Z,72.60
2023-04-07T15:25:05.824Z,72.63
2023-04-07T15:30:29.867Z,73.00
2023-04-07T15:35:54.543Z,73.37
2023-04-07T15:41:19.037Z,73.55
2023-04-07T15:46:45.182Z,73.83
2023-04-07T15:52:12.250Z,73.68
2023-04-07T15:57:37.255Z,73.85
2023-04-07T16:03:04.356Z,74.18
2023-04-07T16:08:29.396Z,74.44
2023-04-07T16:13:54.288Z,75.29
2023-04-07T16:19:18.682Z,75.52
2023-04-07T16:24:43.871Z,75.78
2023-04-07T16:30:09.550Z,75.98
2023-04-07T16:35:34.261Z,76.05
2023-04-07T16:41:04.406Z,76.42
2023-04-07T16:46:30.635Z,76.53
2023-04-07T16:51:55.529Z,77.55
2023-04-07T16:57:20.707Z,77.66
2023-04-07T17:02:46.000Z,77.72
2023-04-07T17:08:10.873Z,77.73
2023-04-07T17:13:35.843Z,77.58
2023-04-07T17:19:00.234Z,77.70
2023-04-07T17:24:26.069Z,77.93
2023-04-07T17:29:50.502Z,78.34
2023-04-07T17:35:14.764Z,78.63
2023-04-07T17:40:39.168Z,78.83
2023-04-07T17:46:04.759Z,79.34
2023-04-07T17:51:29.457Z,79.45
2023-04-07T17:56:54.592Z,79.52
2023-04-07T18:02:18.957Z,79.87
2023-04-07T18:07:43.027Z,80.62
2023-04-07T18:13:07.313Z,81.29
2023-04-07T18:18:31.769Z,82.06
2023-04-07T18:23:56.257Z,82.55
2023-04-07T18:29:20.867Z,82.92
2023-04-07T18:34:48.150Z,83.51
2023-04-07T18:40:12.735Z,83.81
2023-04-07T18:45:37.193Z,84.26
2023-04-07T18:51:01.743Z,84.77
2023-04-07T18:56:27.832Z,84.86
2023-04-07T19:01:53.402Z,85.14
2023-04-07T19:07:18.812Z,84.81
2023-04-07T19:12:44.101Z,84.80
2023-04-07T19:18:09.813Z,85.25
2023-04-07T19:23:34.456Z,85.54
2023-04-07T19:28:59.344Z,85.48
2023-04-07T19:34:25.029Z,85.70
2023-04-07T19:40:01.653Z,86.15
2023-04-07T19:45:27.459Z,86.56
2023-04-07T19:50:51.738Z,86.80
2023-04-07T19:56:16.506Z,86.95
2023-04-07T20:01:41.484Z,87.00
2023-04-07T20:07:07.333Z,87.37
2023-04-07T20:12:32.464Z,87.39
2023-04-07T20:17:56.709Z,87.77
2023-04-07T20:23:22.609Z,88.39
2023-04-07T20:28:47.319Z,88.58
2023-04-07T20:34:11.946Z,89.17
2023-04-07T20:39:37.353Z,89.29
2023-04-07T20:45:10.626Z,89.50
2023-04-07T20:50:35.169Z,89.93
2023-04-07T20:55:59.832Z,89.80
2023-04-07T21:01:24.391Z,90.36
2023-04-07T21:06:49.970Z,90.44
2023-04-07T21:12:15.186Z,90.52
2023-04-07T21:17:39.968Z,90.61
2023-04-07T21:23:09.180Z,90.86
2023-04-07T21:28:33.842Z,90.56
2023-04-07T21:33:59.554Z,90.69
2023-04-07T21:39:24.665Z,90.89
2023-04-07T21:44:50.718Z,91.04
2023-04-07T21:50:15.396Z,91.13
2023-04-07T21:55:39.669Z,91.03
2023-04-07T22:01:04.232Z,91.61
2023-04-07T22:06:28.987Z,91.83
2023-04-07T22:11:54.411Z,92.21
2023-04-07T22:17:19.601Z,92.55
2023-04-07T22:22:44.642Z,92.88
2023-04-07T22:28:09.013Z,92.91
2023-04-07T22:33:33.812Z,92.83
2023-04-07T22:38:58.386Z,93.19
2023-04-07T22:44:23.032Z,93.19
2023-04-07T22:49:48.644Z,93.02
2023-04-07T22:55:13.868Z,93.20
2023-04-07T23:00:38.605Z,93.25
2023-04-07T23:06:03.601Z,93.11
2023-04-07T23:11:28.253Z,93.18
2023-04-07T23:16:52.771Z,93.35
2023-04-07T23:22:17.646Z,93.46
2023-04-07T23:27:42.074Z,93.55
2023-04-07T23:33:06.760Z,93.78
2023-04-07T23:38:30.857Z,93.86
2023-04-07T23:43:55.244Z,93.79
2023-04-07T23:49:19.621Z,93.78
2023-04-07T23:54:45.349Z,93.56
